createdAt,value
2024-04-02T00:02:23.767Z,11.33
2024-04-02T00:04:51.655Z,10.50
2024-04-02T00:07:19.472Z,10.33
2024-04-02T00:09:47.530Z,11.33
2024-04-02T00:12:15.519Z,11.33
2024-04-02T00:14:43.434Z,12.00
2024-04-02T00:17:11.402Z,12.33
2024-04-02T00:19:39.471Z,9.67
2024-04-02T00:22:07.393Z,11.00
2024-04-02T00:24:38.202Z,11.00
2024-04-02T00:27:06.358Z,10.33
2024-04-02T00:29:34.394Z,10.00
2024-04-02T00:32:02.344Z,12.33
2024-04-02T00:34:30.355Z,10.00
2024-04-02T00:36:58.438Z,10.67
2024-04-02T00:39:26.414Z,11.00
2024-04-02T00:41:54.353Z,12.00
2024-04-02T00:44:22.389Z,11.33
2024-04-02T00:46:50.412Z,11.00
2024-04-02T00:49:19.064Z,10.50
2024-04-02T00:51:47.044Z,11.33
2024-04-02T00:54:14.993Z,11.50
2024-04-02T00:56:43.003Z,10.00
2024-04-02T00:59:11.364Z,11.00
2024-04-02T01:01:39.248Z,10.00
2024-04-02T01:04:07.212Z,10.00
2024-04-02T01:06:35.199Z,10.33
2024-04-02T01:09:05.151Z,11.00
2024-04-02T01:11:33.764Z,12.00
2024-04-02T01:14:01.843Z,11.50
2024-04-02T01:16:30.059Z,10.67
2024-04-02T01:18:58.027Z,9.67
2024-04-02T01:21:26.092Z,8.50
2024-04-02T01:23:54.002Z,10.33
2024-04-02T01:26:21.903Z,11.00
2024-04-02T01:28:54.395Z,10.00
2024-04-02T01:31:22.204Z,9.50
2024-04-02T01:33:50.189Z,12.50
2024-04-02T01:36:18.288Z,10.00
2024-04-02T01:38:46.315Z,9.67
2024-04-02T01:41:14.346Z,10.00
2024-04-02T01:43:42.316Z,9.33
2024-04-02T01:46:10.464Z,11.33
2024-04-02T01:48:38.324Z,10.00
2024-04-02T01:51:06.199Z,9.33
2024-04-02T01:53:34.071Z,10.33
2024-04-02T01:56:02.007Z,10.00
2024-04-02T01:58:29.923Z,9.00
2024-04-02T02:00:57.815Z,9.00
2024-04-02T02:03:25.819Z,10.33
2024-04-02T02:05:53.716Z,10.50
2024-04-02T02:08:21.671Z,9.33
2024-04-02T02:10:49.537Z,10.33
2024-04-02T02:13:17.692Z,9.33
2024-04-02T02:15:45.699Z,9.00
2024-04-02T02:18:13.657Z,9.00
2024-04-02T02:20:41.583Z,10.00
2024-04-02T02:23:09.565Z,9.33
2024-04-02T02:25:37.455Z,9.33
2024-04-02T02:28:05.580Z,11.00
2024-04-02T02:30:33.521Z,10.00
2024-04-02T02:33:01.439Z,8.33
2024-04-02T02:35:29.447Z,11.00
2024-04-02T02:37:57.334Z,9.33
2024-04-02T02:40:25.219Z,9.33
2024-04-02T02:42:53.138Z,9.33
2024-04-02T02:45:21.026Z,9.33
2024-04-02T02:47:49.048Z,10.50
2024-04-02T02:50:17.094Z,8.67
2024-04-02T02:52:45.185Z,10.00
2024-04-02T02:55:13.156Z,9.00
2024-04-02T02:57:41.044Z,10.33
2024-04-02T03:00:09.415Z,9.67
2024-04-02T03:02:37.499Z,9.67
2024-04-02T03:05:05.657Z,10.33
2024-04-02T03:07:33.666Z,9.33
2024-04-02T03:10:01.648Z,10.00
2024-04-02T03:12:29.676Z,8.00
2024-04-02T03:14:57.635Z,8.33
2024-04-02T03:17:25.689Z,10.00
2024-04-02T03:19:53.696Z,9.50
2024-04-02T03:22:22.134Z,9.00
2024-04-02T03:24:52.623Z,9.00
2024-04-02T03:27:20.654Z,8.00
2024-04-02T03:29:48.832Z,11.33
2024-04-02T03:32:17.052Z,8.00
2024-04-02T03:34:44.917Z,9.00
2024-04-02T03:37:12.872Z,9.00
2024-04-02T03:39:40.882Z,8.00
2024-04-02T03:42:08.759Z,8.00
2024-04-02T03:44:36.774Z,9.33
2024-04-02T03:47:04.970Z,5.00
2024-04-02T03:49:32.885Z,7.50
2024-04-02T04:01:34.654Z,8.67
2024-04-02T04:04:02.980Z,6.00
2024-04-02T04:06:30.922Z,8.33
2024-04-02T04:08:58.803Z,10.00
2024-04-02T04:11:28.895Z,9.50
2024-04-02T04:13:57.304Z,8.00
2024-04-02T04:16:25.177Z,9.00
2024-04-02T04:18:53.244Z,9.00
2024-04-02T04:21:21.139Z,7.50
2024-04-02T04:23:49.149Z,7.00
2024-04-02T04:26:17.153Z,9.33
2024-04-02T04:28:45.175Z,8.33
2024-04-02T04:31:13.126Z,7.00
2024-04-02T04:33:41.076Z,9.00
2024-04-02T04:36:09.214Z,8.33
2024-04-02T04:38:37.240Z,9.00
2024-04-02T04:41:05.250Z,7.00
2024-04-02T04:43:33.241Z,8.33
2024-04-02T04:46:01.266Z,8.33
2024-04-02T04:48:29.297Z,9.33
2024-04-02T04:51:01.575Z,7.67
2024-04-02T04:53:30.024Z,7.00
2024-04-02T04:56:05.409Z,7.00
2024-04-02T04:58:33.935Z,7.67
2024-04-02T05:01:02.767Z,7.00
2024-04-02T05:03:30.919Z,7.00
2024-04-02T05:06:09.740Z,5.00
2024-04-02T05:08:38.350Z,8.50
2024-04-02T05:11:07.069Z,9.33
2024-04-02T05:13:35.074Z,8.33
2024-04-02T05:16:05.133Z,7.00
2024-04-02T05:18:33.874Z,9.33
2024-04-02T05:21:01.843Z,6.50
2024-04-02T05:23:30.149Z,8.00
2024-04-02T05:25:58.971Z,7.00
2024-04-02T05:28:27.265Z,10.33
2024-04-02T05:30:55.329Z,9.33
2024-04-02T05:33:24.454Z,11.67
2024-04-02T05:35:52.463Z,11.33
2024-04-02T05:38:20.714Z,10.33
2024-04-02T05:40:48.714Z,12.00
2024-04-02T05:43:16.668Z,11.00
2024-04-02T05:45:44.603Z,9.67
2024-04-02T05:48:12.613Z,9.67
2024-04-02T05:50:40.496Z,10.33
2024-04-02T05:53:08.588Z,10.33
2024-04-02T05:55:36.458Z,8.67
2024-04-02T05:58:04.683Z,8.00
2024-04-02T06:00:32.646Z,7.00
2024-04-02T06:03:01.227Z,9.33
2024-04-02T06:05:29.502Z,9.33
2024-04-02T06:07:58.478Z,10.00
2024-04-02T06:10:27.958Z,10.33
2024-04-02T06:12:56.114Z,8.00
2024-04-02T06:15:25.475Z,11.00
2024-04-02T06:17:53.779Z,11.33
2024-04-02T06:20:21.820Z,11.33
2024-04-02T06:22:49.879Z,10.33
2024-04-02T06:25:17.947Z,9.33
2024-04-02T06:27:45.975Z,9.33
2024-04-02T06:30:14.041Z,8.00
2024-04-02T06:32:42.047Z,11.00
2024-04-02T06:35:10.232Z,8.00
2024-04-02T06:37:38.826Z,12.00
2024-04-02T06:40:07.197Z,10.33
2024-04-02T06:42:35.204Z,10.33
2024-04-02T06:45:03.286Z,11.33
2024-04-02T06:47:31.205Z,10.00
2024-04-02T06:49:59.249Z,10.33
2024-04-02T06:52:27.338Z,8.50
2024-04-02T06:54:55.301Z,9.00
2024-04-02T06:57:23.352Z,9.67
2024-04-02T06:59:51.238Z,10.00
2024-04-02T07:02:21.394Z,11.50
2024-04-02T07:04:49.791Z,12.00
2024-04-02T07:07:17.785Z,9.00
2024-04-02T07:09:47.042Z,10.33
2024-04-02T07:12:15.893Z,9.33
2024-04-02T07:14:43.817Z,10.50
2024-04-02T07:17:11.803Z,10.33
2024-04-02T07:19:39.735Z,9.33
2024-04-02T07:22:07.856Z,8.33
2024-04-02T07:24:35.776Z,9.00
2024-04-02T07:27:03.990Z,8.33
2024-04-02T07:29:32.037Z,8.33
2024-04-02T07:32:02.907Z,9.67
2024-04-02T07:34:31.339Z,8.00
2024-04-02T07:36:59.241Z,10.00
2024-04-02T07:39:27.195Z,9.25
2024-04-02T07:41:55.226Z,7.00
2024-04-02T07:44:23.248Z,5.67
2024-04-02T07:46:51.203Z,6.00
2024-04-02T07:49:19.233Z,7.33
2024-04-02T07:51:47.172Z,7.00
2024-04-02T07:54:15.665Z,6.00
2024-04-02T07:56:43.630Z,5.00
2024-04-02T07:59:12.710Z,4.00
2024-04-02T08:01:41.236Z,4.00
2024-04-02T08:04:09.232Z,4.00
2024-04-02T08:06:37.201Z,3.00
2024-04-02T08:09:05.113Z,3.00
2024-04-02T08:11:33.200Z,3.00
2024-04-02T08:14:01.175Z,4.00
2024-04-02T08:16:29.051Z,3.00
2024-04-02T08:18:56.951Z,4.00
2024-04-02T08:21:24.985Z,3.00
2024-04-02T08:23:52.862Z,3.00
2024-04-02T08:26:20.841Z,2.00
2024-04-02T08:28:48.823Z,3.00
2024-04-02T08:31:16.811Z,3.00
2024-04-02T08:33:44.846Z,3.00
2024-04-02T08:36:12.916Z,3.00
2024-04-02T08:38:40.974Z,2.00
2024-04-02T08:41:08.992Z,3.00
2024-04-02T08:43:36.841Z,3.00
2024-04-02T08:46:04.995Z,3.00
2024-04-02T08:48:32.894Z,3.00
2024-04-02T08:51:01.539Z,1.50
2024-04-02T08:53:29.565Z,1.00
2024-04-02T08:56:00.478Z,1.00
2024-04-02T08:58:28.506Z,1.00
2024-04-02T09:00:56.390Z,1.00
2024-04-02T09:03:24.815Z,0.00
2024-04-02T09:05:52.871Z,0.00
2024-04-02T09:08:20.898Z,0.00
2024-04-02T09:10:48.830Z,0.00
2024-04-02T09:13:16.733Z,0.00
2024-04-02T09:15:45.208Z,0.00
2024-04-02T09:18:13.192Z,0.00
2024-04-02T09:20:41.362Z,0.00
2024-04-02T09:23:09.780Z,0.75
2024-04-02T09:25:37.677Z,0.00
2024-04-02T09:28:05.994Z,0.00
2024-04-02T09:30:33.967Z,0.00
2024-04-02T09:33:03.759Z,0.00
2024-04-02T09:35:44.141Z,0.00
2024-04-02T09:38:12.986Z,0.00
2024-04-02T09:40:41.439Z,0.00
2024-04-02T09:43:12.243Z,0.00
2024-04-02T09:45:40.256Z,0.00
2024-04-02T09:48:08.420Z,0.00
2024-04-02T09:50:36.412Z,0.00
2024-04-02T09:53:04.521Z,0.00
2024-04-02T09:55:32.543Z,0.00
2024-04-02T09:58:01.964Z,0.00
2024-04-02T10:00:30.970Z,0.00
2024-04-02T10:03:00.453Z,0.00
2024-04-02T10:05:28.663Z,0.00
2024-04-02T10:07:58.204Z,0.00
2024-04-02T10:10:30.146Z,0.00
2024-04-02T10:13:00.808Z,0.00
2024-04-02T10:15:29.931Z,0.00
2024-04-02T10:17:59.116Z,0.00
2024-04-02T10:20:33.417Z,0.00
2024-04-02T10:23:02.838Z,0.00
2024-04-02T10:25:36.567Z,0.00
2024-04-02T10:28:09.926Z,0.00
2024-04-02T10:30:44.208Z,0.00
2024-04-02T10:33:21.918Z,0.00
2024-04-02T10:35:49.791Z,0.00
2024-04-02T10:38:17.712Z,0.00
2024-04-02T10:40:45.711Z,0.00
2024-04-02T10:43:13.725Z,0.00
2024-04-02T10:45:41.689Z,0.00
2024-04-02T10:48:09.745Z,0.00
2024-04-02T10:50:37.715Z,0.00
2024-04-02T10:53:08.151Z,0.00
2024-04-02T10:55:36.140Z,0.00
2024-04-02T10:58:04.319Z,0.00
2024-04-02T11:00:32.363Z,0.00
2024-04-02T11:03:00.383Z,0.00
2024-04-02T11:05:28.397Z,0.00
2024-04-02T11:07:58.125Z,0.00
2024-04-02T11:10:25.980Z,0.00
2024-04-02T11:12:53.973Z,0.00
2024-04-02T11:15:22.490Z,0.00
2024-04-02T11:17:50.353Z,0.00
2024-04-02T11:20:18.372Z,0.00
2024-04-02T11:23:04.891Z,0.00
2024-04-02T11:25:32.886Z,0.00
2024-04-02T11:28:05.321Z,0.00
2024-04-02T11:30:33.422Z,0.00
2024-04-02T11:33:01.432Z,0.00
2024-04-02T11:35:30.407Z,0.00
2024-04-02T11:37:58.873Z,0.00
2024-04-02T11:40:26.794Z,0.00
2024-04-02T11:42:54.832Z,0.00
2024-04-02T11:45:23.688Z,0.00
2024-04-02T11:47:51.672Z,0.00
2024-04-02T11:50:19.949Z,0.00
2024-04-02T11:52:49.067Z,0.00
2024-04-02T11:55:17.076Z,0.00
2024-04-02T11:58:03.726Z,0.00
2024-04-02T12:00:31.779Z,0.00
2024-04-02T12:02:59.823Z,1.00
2024-04-02T12:05:27.810Z,3.00
2024-04-02T12:07:55.820Z,3.00
2024-04-02T12:10:23.732Z,3.00
2024-04-02T12:12:53.139Z,2.33
2024-04-02T12:15:21.532Z,4.00
2024-04-02T12:17:49.886Z,3.00
2024-04-02T12:20:18.096Z,3.00
2024-04-02T12:22:46.013Z,3.00
2024-04-02T12:25:14.083Z,3.00
2024-04-02T12:27:42.073Z,2.50
2024-04-02T12:30:10.697Z,1.00
2024-04-02T12:32:39.539Z,3.00
2024-04-02T12:35:08.093Z,1.67
2024-04-02T12:37:36.123Z,1.00
2024-04-02T12:40:04.670Z,1.00
2024-04-02T12:42:32.706Z,1.00
2024-04-02T12:45:00.777Z,1.00
2024-04-02T12:47:28.710Z,1.75
2024-04-02T12:49:56.730Z,1.00
2024-04-02T12:52:24.993Z,1.00
2024-04-02T13:03:56.811Z,0.67
2024-04-02T13:06:24.842Z,1.00
2024-04-02T13:08:53.184Z,1.00
2024-04-02T13:11:21.115Z,0.00
2024-04-02T13:13:52.986Z,0.00
2024-04-02T13:16:21.237Z,1.00
2024-04-02T13:18:49.275Z,1.00
2024-04-02T13:21:17.663Z,0.00
2024-04-02T13:23:45.935Z,1.00
2024-04-02T13:26:14.478Z,1.00
2024-04-02T13:28:42.545Z,1.00
2024-04-02T13:31:10.866Z,1.00
2024-04-02T13:33:38.964Z,0.50
2024-04-02T13:36:10.541Z,0.25
2024-04-02T13:38:40.409Z,0.00
2024-04-02T13:41:08.296Z,0.00
2024-04-02T13:43:36.278Z,0.00
2024-04-02T13:46:05.043Z,0.00
2024-04-02T13:48:33.905Z,0.25
2024-04-02T13:51:09.388Z,0.00
2024-04-02T13:53:38.086Z,0.00
2024-04-02T13:56:06.143Z,0.00
2024-04-02T13:58:34.128Z,0.00
2024-04-02T14:01:03.876Z,0.00
2024-04-02T14:03:31.909Z,0.00
2024-04-02T14:06:01.013Z,0.00
2024-04-02T14:08:31.754Z,0.00
2024-04-02T14:11:00.478Z,0.00
2024-04-02T14:13:31.134Z,0.00
2024-04-02T14:15:59.553Z,0.00
2024-04-02T14:18:27.728Z,0.00
2024-04-02T14:21:02.579Z,0.00
2024-04-02T14:23:31.078Z,0.00
2024-04-02T14:25:59.633Z,0.33
2024-04-02T14:28:28.570Z,0.00
2024-04-02T14:30:57.921Z,0.00
2024-04-02T14:33:25.786Z,0.00
2024-04-02T14:35:53.687Z,0.00
2024-04-02T14:38:22.058Z,0.00
2024-04-02T14:41:04.365Z,0.00
2024-04-02T14:43:33.029Z,0.00
2024-04-02T14:46:01.302Z,0.00
2024-04-02T14:48:29.610Z,0.00
2024-04-02T14:51:00.543Z,0.00
2024-04-02T14:53:28.633Z,0.00
2024-04-02T14:56:00.791Z,0.00
2024-04-02T14:58:28.658Z,0.00
2024-04-02T15:00:56.590Z,0.00
2024-04-02T15:03:25.016Z,0.00
2024-04-02T15:05:53.026Z,0.00
2024-04-02T15:08:20.944Z,0.00
2024-04-02T15:10:48.949Z,0.00
2024-04-02T15:13:16.884Z,0.00
2024-04-02T15:15:44.833Z,0.00
2024-04-02T15:18:12.918Z,0.00
2024-04-02T15:20:40.762Z,0.00
2024-04-02T15:23:08.772Z,0.00
2024-04-02T15:25:36.671Z,0.00
2024-04-02T15:28:04.762Z,0.00
2024-04-02T15:30:32.930Z,0.00
2024-04-02T15:33:01.036Z,0.00
2024-04-02T15:35:29.158Z,0.00
2024-04-02T15:37:57.163Z,0.00
2024-04-02T15:40:25.146Z,0.00
2024-04-02T15:42:52.980Z,0.00
2024-04-02T15:45:23.862Z,0.00
2024-04-02T15:47:51.812Z,0.00
2024-04-02T15:50:19.764Z,1.00
2024-04-02T15:52:47.673Z,0.00
2024-04-02T15:55:15.731Z,0.00
2024-04-02T15:57:43.637Z,0.00
2024-04-02T16:00:12.209Z,0.00
2024-04-02T16:02:40.057Z,0.00
2024-04-02T16:05:08.119Z,0.00
2024-04-02T16:07:36.183Z,0.00
2024-04-02T16:10:06.266Z,0.00
2024-04-02T16:12:34.615Z,0.00
2024-04-02T16:15:02.632Z,0.00
2024-04-02T16:23:29.335Z,0.00
2024-04-02T16:25:57.471Z,0.00
2024-04-02T16:28:27.011Z,0.00
2024-04-02T16:30:55.038Z,0.00
2024-04-02T16:33:22.947Z,0.00
2024-04-02T16:35:50.969Z,0.00
2024-04-02T16:38:18.973Z,0.00
2024-04-02T16:40:47.016Z,0.00
2024-04-02T16:43:17.834Z,0.00
2024-04-02T16:45:45.847Z,0.00
2024-04-02T16:48:13.805Z,0.00
2024-04-02T16:50:41.883Z,0.00
2024-04-02T16:53:09.970Z,0.00
2024-04-02T16:55:37.859Z,0.00
2024-04-02T16:58:05.813Z,0.00
2024-04-02T17:00:33.908Z,0.00
2024-04-02T17:03:02.072Z,0.00
2024-04-02T17:05:30.384Z,0.00
2024-04-02T17:07:58.383Z,0.00
2024-04-02T17:10:26.366Z,0.00
2024-04-02T17:12:54.405Z,0.00
2024-04-02T17:15:22.435Z,0.00
2024-04-02T17:17:50.486Z,0.00
2024-04-02T17:20:19.075Z,0.00
2024-04-02T17:22:49.773Z,0.00
2024-04-02T17:25:18.591Z,0.00
2024-04-02T17:27:46.586Z,0.00
2024-04-02T17:30:14.527Z,0.00
2024-04-02T17:32:42.497Z,0.00
2024-04-02T17:35:10.472Z,0.00
2024-04-02T17:37:38.377Z,0.00
2024-04-02T17:40:07.063Z,0.00
2024-04-02T17:42:35.048Z,0.00
2024-04-02T17:45:02.993Z,0.00
2024-04-02T17:47:30.936Z,0.00
2024-04-02T17:49:58.906Z,0.00
2024-04-02T17:52:26.891Z,0.00
2024-04-02T17:54:54.819Z,0.00
2024-04-02T17:57:22.722Z,0.00
2024-04-02T17:59:50.716Z,0.00
2024-04-02T18:02:18.693Z,0.00
2024-04-02T18:04:46.749Z,0.00
2024-04-02T18:07:15.980Z,0.00
2024-04-02T18:09:43.943Z,0.00
2024-04-02T18:12:12.439Z,0.00
2024-04-02T18:14:40.493Z,0.00
2024-04-02T18:17:08.392Z,0.00
2024-04-02T18:19:37.331Z,0.00
2024-04-02T18:22:05.205Z,0.00
2024-04-02T18:24:33.999Z,0.00
2024-04-02T18:27:01.882Z,0.00
2024-04-02T18:29:29.805Z,0.00
2024-04-02T18:31:57.844Z,0.00
2024-04-02T18:34:25.784Z,0.00
2024-04-02T18:36:53.717Z,0.00
2024-04-02T18:39:22.002Z,0.00
2024-04-02T18:41:51.769Z,0.00
2024-04-02T18:44:19.786Z,0.00
2024-04-02T18:46:47.964Z,0.00
2024-04-02T18:49:15.921Z,0.00
2024-04-02T18:51:43.895Z,0.00
2024-04-02T18:54:11.904Z,0.00
2024-04-02T18:56:40.349Z,0.00
2024-04-02T18:59:08.242Z,0.00
2024-04-02T19:01:36.125Z,0.00
2024-04-02T19:04:04.145Z,0.00
2024-04-02T19:06:33.270Z,0.00
2024-04-02T19:09:01.231Z,0.00
2024-04-02T19:11:29.210Z,0.00
2024-04-02T19:13:57.181Z,0.00
2024-04-02T19:16:25.056Z,0.00
2024-04-02T19:18:53.100Z,0.00
2024-04-02T19:21:21.076Z,0.25
2024-04-02T19:23:49.038Z,0.00
2024-04-02T19:26:17.018Z,0.00
2024-04-02T19:28:44.909Z,0.00
2024-04-02T19:31:15.205Z,0.00
2024-04-02T19:33:43.215Z,0.00
2024-04-02T19:36:11.294Z,0.00
2024-04-02T19:38:39.310Z,0.00
2024-04-02T19:41:07.758Z,0.00
2024-04-02T19:43:35.883Z,0.00
2024-04-02T19:46:05.947Z,0.00
2024-04-02T19:48:33.962Z,0.00
2024-04-02T19:51:04.757Z,0.00
2024-04-02T19:53:40.039Z,0.00
2024-04-02T19:56:14.885Z,0.00
2024-04-02T19:58:43.187Z,0.00
2024-04-02T20:01:12.222Z,0.00
2024-04-02T20:03:40.392Z,0.00
2024-04-02T20:06:08.928Z,0.00
2024-04-02T20:08:36.857Z,0.00
2024-04-02T20:11:05.101Z,0.00
2024-04-02T20:13:33.108Z,0.00
2024-04-02T20:16:01.094Z,0.00
2024-04-02T20:18:29.015Z,0.00
2024-04-02T20:21:09.308Z,0.00
2024-04-02T20:23:40.860Z,0.00
2024-04-02T20:26:09.324Z,0.00
2024-04-02T20:28:37.488Z,0.00
2024-04-02T20:31:11.493Z,0.00
2024-04-02T20:33:42.503Z,0.00
2024-04-02T20:36:19.944Z,0.00
2024-04-02T20:38:49.846Z,0.00
2024-04-02T20:41:19.781Z,0.00
2024-04-02T20:43:47.759Z,0.00
2024-04-02T20:46:15.745Z,0.00
2024-04-02T20:48:43.632Z,0.00
2024-04-02T20:51:11.981Z,0.00
2024-04-02T20:53:39.962Z,0.00
2024-04-02T20:56:08.951Z,0.75
2024-04-02T20:58:38.042Z,1.00
2024-04-02T21:01:12.080Z,1.00
2024-04-02T21:03:40.102Z,1.00
2024-04-02T21:06:09.100Z,2.00
2024-04-02T21:08:37.730Z,1.00
2024-04-02T21:11:08.471Z,1.00
2024-04-02T21:13:36.440Z,1.00
2024-04-02T21:16:04.816Z,1.00
2024-04-02T21:18:35.234Z,1.00
2024-04-02T21:21:04.960Z,1.00
2024-04-02T21:23:32.873Z,1.00
2024-04-02T21:26:00.860Z,1.00
2024-04-02T21:28:28.994Z,1.00
2024-04-02T21:30:57.031Z,1.00
2024-04-02T21:33:25.043Z,0.33
2024-04-02T21:35:54.376Z,0.00
2024-04-02T21:38:22.364Z,0.67
2024-04-02T21:40:57.640Z,1.00
2024-04-02T21:43:25.989Z,1.00
2024-04-02T21:46:01.316Z,1.00
2024-04-02T21:48:30.039Z,1.00
2024-04-02T21:50:59.120Z,1.00
2024-04-02T21:53:30.283Z,1.00
2024-04-02T21:55:58.782Z,0.00
2024-04-02T21:58:27.538Z,1.00
2024-04-02T22:00:55.919Z,0.33
2024-04-02T22:03:24.114Z,1.00
2024-04-02T22:06:04.143Z,1.00
2024-04-02T22:08:32.755Z,1.00
2024-04-02T22:11:01.740Z,1.00
2024-04-02T22:13:31.061Z,1.00
2024-04-02T22:15:59.136Z,1.00
2024-04-02T22:18:26.994Z,1.00
2024-04-02T22:20:55.000Z,1.00
2024-04-02T22:23:23.030Z,0.00
2024-04-02T22:25:57.720Z,0.00
2024-04-02T22:28:25.694Z,2.00
2024-04-02T22:30:54.253Z,1.00
2024-04-02T22:33:22.244Z,2.00
2024-04-02T22:35:50.133Z,2.00
2024-04-02T22:38:18.207Z,0.67
2024-04-02T22:40:46.470Z,1.00
2024-04-02T22:43:14.336Z,1.50
2024-04-02T22:45:42.303Z,1.00
2024-04-02T22:48:10.308Z,1.00
2024-04-02T22:50:38.320Z,1.00
2024-04-02T22:53:06.428Z,1.00
2024-04-02T22:55:34.360Z,0.00
2024-04-02T22:58:02.302Z,1.67
2024-04-02T23:00:30.359Z,1.00
2024-04-02T23:02:58.348Z,1.00
2024-04-02T23:05:26.986Z,1.00
2024-04-02T23:07:54.952Z,1.50
2024-04-02T23:10:23.041Z,1.00
2024-04-02T23:12:51.009Z,2.00
2024-04-02T23:15:18.875Z,1.00
2024-04-02T23:17:50.176Z,1.67
2024-04-02T23:20:18.182Z,1.25
2024-04-02T23:22:46.153Z,2.00
2024-04-02T23:25:14.090Z,1.33
2024-04-02T23:27:41.955Z,1.50
2024-04-02T23:30:10.253Z,2.00
2024-04-02T23:32:38.283Z,3.00
2024-04-02T23:35:06.385Z,3.00
2024-04-02T23:37:34.380Z,3.00
2024-04-02T23:40:02.402Z,3.00
2024-04-02T23:42:30.426Z,3.00
2024-04-02T23:44:58.462Z,4.00
2024-04-02T23:47:26.490Z,2.00
2024-04-02T23:49:54.438Z,3.50
2024-04-02T23:52:22.453Z,5.00
2024-04-02T23:54:50.444Z,5.00
2024-04-02T23:57:18.391Z,5.00
2024-04-02T23:59:46.584Z,5.00
